createdAt,value
2022-10-22T00:00:50.437Z,101682.31
2022-10-22T00:03:17.916Z,101684.09
2022-10-22T00:05:45.550Z,101691.22
2022-10-22T00:08:14.669Z,101706.38
2022-10-22T00:10:42.939Z,101696.59
2022-10-22T00:13:11.841Z,101700.22
2022-10-22T00:15:39.769Z,101685.06
2022-10-22T00:18:07.461Z,101671.63
2022-10-22T00:20:35.238Z,101666.25
2022-10-22T00:23:02.806Z,101648.28
2022-10-22T00:25:32.131Z,101635.94
2022-10-22T00:27:59.752Z,101615.41
2022-10-22T00:30:27.449Z,101590.53
2022-10-22T00:32:55.111Z,101579.94
2022-10-22T00:35:22.615Z,101559.50
2022-10-22T00:37:50.192Z,101532.78
2022-10-22T00:40:17.720Z,101523.00
2022-10-22T00:42:46.639Z,101501.84
2022-10-22T00:45:20.340Z,101499.31
2022-10-22T00:47:54.349Z,101481.75
2022-10-22T00:50:26.074Z,101435.75
2022-10-22T00:52:55.297Z,101421.75
2022-10-22T00:55:24.221Z,101408.63
2022-10-22T00:57:55.096Z,101394.63
2022-10-22T01:00:23.333Z,101371.69
2022-10-22T01:02:52.427Z,101364.09
2022-10-22T01:05:20.760Z,101351.06
2022-10-22T01:07:50.339Z,101353.03
2022-10-22T01:10:29.221Z,101353.25
2022-10-22T01:13:09.493Z,101379.34
2022-10-22T01:15:44.717Z,101406.13
2022-10-22T01:18:22.331Z,101439.91
2022-10-22T01:21:03.286Z,101486.34
2022-10-22T01:23:52.129Z,101531.91
2022-10-22T01:26:29.165Z,101550.59
2022-10-22T01:29:08.366Z,101577.25
2022-10-22T01:31:40.739Z,101588.13
2022-10-22T01:34:10.682Z,101590.94
2022-10-22T01:36:39.398Z,101613.19
2022-10-22T01:39:08.393Z,101647.13
2022-10-22T01:41:36.674Z,101642.66
2022-10-22T01:44:05.870Z,101659.72
2022-10-22T01:46:33.639Z,101666.00
2022-10-22T01:49:13.987Z,101682.16
2022-10-22T01:51:55.652Z,101683.09
2022-10-22T01:54:33.244Z,101702.75
2022-10-22T01:57:09.803Z,101717.00
2022-10-22T01:59:50.410Z,101719.75
2022-10-22T02:02:34.685Z,101720.69
2022-10-22T02:05:06.311Z,101743.81
2022-10-22T02:07:39.568Z,101746.59
2022-10-22T02:10:10.236Z,101760.09
2022-10-22T02:12:39.860Z,101771.69
2022-10-22T02:15:11.648Z,101778.97
2022-10-22T02:17:40.806Z,101790.59
2022-10-22T02:20:14.093Z,101787.16
2022-10-22T02:22:42.842Z,101766.75
2022-10-22T02:25:12.491Z,101776.56
2022-10-22T02:27:44.552Z,101808.59
2022-10-22T02:32:55.665Z,101807.00
2022-10-22T02:35:26.016Z,101823.03
2022-10-22T02:37:56.331Z,101826.69
2022-10-22T02:40:24.266Z,101825.84
2022-10-22T02:42:52.428Z,101819.69
2022-10-22T02:45:22.017Z,101834.91
2022-10-22T02:47:49.857Z,101834.94
2022-10-22T02:50:17.741Z,101841.13
2022-10-22T02:52:45.376Z,101854.47
2022-10-22T02:55:12.914Z,101848.22
2022-10-22T02:57:40.752Z,101858.94
2022-10-22T03:00:10.391Z,101853.56
2022-10-22T03:02:39.359Z,101873.16
2022-10-22T03:05:08.121Z,101881.13
2022-10-22T03:07:35.810Z,101883.78
2022-10-22T03:10:03.434Z,101894.50
2022-10-22T03:12:31.192Z,101920.22
2022-10-22T03:14:58.809Z,101919.34
2022-10-22T03:17:26.454Z,101915.81
2022-10-22T03:19:55.355Z,101917.53
2022-10-22T03:22:25.939Z,101924.66
2022-10-22T03:24:58.314Z,101911.34
2022-10-22T03:27:28.348Z,101925.66
2022-10-22T03:29:57.804Z,101917.63
2022-10-22T03:32:25.428Z,101914.97
2022-10-22T03:34:52.957Z,101899.94
2022-10-22T03:37:22.409Z,101895.59
2022-10-22T03:39:50.223Z,101896.53
2022-10-22T03:42:18.114Z,101887.78
2022-10-22T03:44:45.700Z,101893.22
2022-10-22T03:47:13.514Z,101874.66
2022-10-22T03:49:41.178Z,101843.72
2022-10-22T03:52:09.782Z,101818.97
2022-10-22T03:54:39.905Z,101813.81
2022-10-22T03:57:07.993Z,101806.75
2022-10-22T03:59:36.922Z,101812.22
2022-10-22T04:02:04.946Z,101816.72
2022-10-22T04:04:32.525Z,101831.00
2022-10-22T04:07:00.214Z,101826.75
2022-10-22T04:09:27.718Z,101829.41
2022-10-22T04:11:56.612Z,101840.94
2022-10-22T04:14:24.315Z,101864.06
2022-10-22T04:16:51.865Z,101881.81
2022-10-22T04:19:19.461Z,101887.13
2022-10-22T04:21:46.967Z,101896.03
2022-10-22T04:24:14.526Z,101907.56
2022-10-22T04:26:42.743Z,101924.44
2022-10-22T04:29:15.892Z,101936.75
2022-10-22T04:31:44.326Z,101952.75
2022-10-22T04:34:11.828Z,101976.72
2022-10-22T04:36:39.509Z,101986.44
2022-10-22T04:39:07.426Z,101989.94
2022-10-22T04:41:39.777Z,101988.13
2022-10-22T04:44:12.244Z,102005.03
2022-10-22T04:46:45.065Z,101995.25
2022-10-22T04:49:12.803Z,101998.81
2022-10-22T04:51:40.373Z,102010.34
2022-10-22T04:54:07.905Z,102005.84
2022-10-22T04:56:35.610Z,101990.78
2022-10-22T04:59:05.442Z,101992.53
2022-10-22T05:01:37.060Z,102003.19
2022-10-22T05:04:11.698Z,102000.50
2022-10-22T05:06:39.398Z,101989.78
2022-10-22T05:09:08.702Z,101996.91
2022-10-22T05:11:38.821Z,102001.31
2022-10-22T05:14:09.394Z,101991.53
2022-10-22T05:16:38.045Z,101977.31
2022-10-22T05:19:06.129Z,101969.34
2022-10-22T05:21:35.495Z,101982.72
2022-10-22T05:24:04.017Z,101986.28
2022-10-22T05:26:31.596Z,101996.13
2022-10-22T05:28:59.107Z,101997.00
2022-10-22T05:31:28.750Z,101997.13
2022-10-22T05:33:56.911Z,101991.75
2022-10-22T05:36:24.635Z,101996.19
2022-10-22T05:38:54.041Z,101993.50
2022-10-22T05:41:23.088Z,101999.69
2022-10-22T05:43:51.037Z,101999.69
2022-10-22T05:46:22.740Z,102005.03
2022-10-22T05:48:51.676Z,102008.53
2022-10-22T05:51:20.195Z,102003.25
2022-10-22T05:53:51.554Z,101994.31
2022-10-22T05:56:20.549Z,102005.84
2022-10-22T05:58:48.558Z,102010.34
2022-10-22T06:01:18.541Z,102013.03
2022-10-22T06:03:46.496Z,102008.72
2022-10-22T06:06:20.538Z,102007.84
2022-10-22T06:08:49.531Z,102000.75
2022-10-22T06:11:18.429Z,102000.75
2022-10-22T06:13:48.202Z,102009.66
2022-10-22T06:16:15.979Z,102013.19
2022-10-22T06:18:43.528Z,102010.56
2022-10-22T06:21:14.025Z,102027.41
2022-10-22T06:23:42.129Z,102041.50
2022-10-22T06:26:10.872Z,102059.22
2022-10-22T06:28:38.832Z,102077.78
2022-10-22T06:31:08.008Z,102085.66
2022-10-22T06:33:42.161Z,102090.88
2022-10-22T06:36:11.600Z,102084.53
2022-10-22T06:38:39.513Z,102085.31
2022-10-22T06:41:08.745Z,102082.50
2022-10-22T06:43:36.594Z,102079.72
2022-10-22T06:46:07.170Z,102086.66
2022-10-22T06:48:37.877Z,102075.84
2022-10-22T06:51:07.737Z,102064.84
2022-10-22T06:53:35.898Z,102054.72
2022-10-22T06:56:06.984Z,102033.09
2022-10-22T06:58:34.620Z,102015.78
2022-10-22T07:01:03.760Z,101968.38
2022-10-22T07:03:31.642Z,101952.03
2022-10-22T07:06:02.122Z,101915.16
2022-10-22T07:08:30.070Z,101853.44
2022-10-22T07:10:59.132Z,101824.59
2022-10-22T07:13:26.674Z,101785.91
2022-10-22T07:15:55.087Z,101742.97
2022-10-22T07:18:23.212Z,101723.13
2022-10-22T07:20:51.185Z,101683.72
2022-10-22T07:23:20.321Z,101672.63
2022-10-22T07:25:48.018Z,101664.94
2022-10-22T07:28:15.778Z,101654.66
2022-10-22T07:30:43.465Z,101625.78
2022-10-22T07:33:11.408Z,101599.34
2022-10-22T07:35:39.918Z,101583.56
2022-10-22T07:38:08.159Z,101573.13
2022-10-22T07:40:37.233Z,101508.66
2022-10-22T07:43:05.083Z,101515.16
2022-10-22T07:45:33.636Z,101471.06
2022-10-22T07:48:02.576Z,101429.56
2022-10-22T07:50:30.365Z,101385.72
2022-10-22T07:52:58.379Z,101338.00
2022-10-22T07:55:26.322Z,101336.09
2022-10-22T07:57:55.395Z,101328.97
2022-10-22T08:00:25.235Z,101324.06
2022-10-22T08:02:53.489Z,101308.72
2022-10-22T08:05:20.985Z,101319.00
2022-10-22T08:07:48.619Z,101324.47
2022-10-22T08:10:16.258Z,101330.69
2022-10-22T08:12:44.147Z,101348.13
2022-10-22T08:15:13.417Z,101284.22
2022-10-22T08:17:41.247Z,101253.34
2022-10-22T08:20:09.883Z,101249.81
2022-10-22T08:22:37.678Z,101240.41
2022-10-22T08:25:05.982Z,101212.44
2022-10-22T08:27:33.633Z,101222.25
2022-10-22T08:30:01.191Z,101185.06
2022-10-22T08:32:30.083Z,101182.84
2022-10-22T08:34:57.742Z,101192.97
2022-10-22T08:37:25.896Z,101167.19
2022-10-22T08:39:53.746Z,101167.69
2022-10-22T08:42:50.756Z,101175.06
2022-10-22T08:45:24.870Z,101179.22
2022-10-22T08:48:10.342Z,101162.19
2022-10-22T08:50:40.869Z,101139.97
2022-10-22T08:53:15.061Z,101134.31
2022-10-22T08:55:43.660Z,101137.38
2022-10-22T08:58:20.384Z,101132.19
2022-10-22T09:00:56.750Z,101153.22
2022-10-22T09:03:36.592Z,101144.69
2022-10-22T09:06:11.601Z,101116.59
2022-10-22T09:08:41.316Z,101156.09
2022-10-22T09:11:20.946Z,101135.63
2022-10-22T09:13:50.059Z,101127.06
2022-10-22T09:16:20.401Z,101135.47
2022-10-22T09:18:59.529Z,101119.75
2022-10-22T09:21:35.677Z,101113.97
2022-10-22T09:24:12.607Z,101079.19
2022-10-22T09:26:42.084Z,101049.09
2022-10-22T09:29:19.089Z,101079.66
2022-10-22T09:31:46.738Z,101033.50
2022-10-22T09:34:20.449Z,101068.28
2022-10-22T09:36:48.197Z,101061.50
2022-10-22T09:39:26.851Z,101092.91
2022-10-22T09:41:54.737Z,101122.81
2022-10-22T09:44:22.672Z,101136.94
2022-10-22T09:46:50.292Z,101102.34
2022-10-22T09:49:22.299Z,101123.69
2022-10-22T09:51:53.730Z,101104.47
2022-10-22T09:54:23.702Z,101134.66
2022-10-22T09:56:57.383Z,101128.31
2022-10-22T09:59:31.622Z,101126.94
2022-10-22T10:02:13.543Z,101134.31
2022-10-22T10:04:51.917Z,101125.31
2022-10-22T10:07:21.886Z,101104.66
2022-10-22T10:09:50.314Z,101132.97
2022-10-22T10:12:29.094Z,101069.34
2022-10-22T10:15:06.569Z,101051.31
2022-10-22T10:17:42.108Z,101079.06
2022-10-22T10:20:24.809Z,101050.59
2022-10-22T10:22:59.579Z,101047.88
2022-10-22T10:25:44.029Z,101078.13
2022-10-22T10:28:22.678Z,101065.75
2022-10-22T10:30:58.403Z,101056.56
2022-10-22T10:33:39.508Z,101066.56
2022-10-22T10:36:17.741Z,101082.94
2022-10-22T10:38:56.481Z,101010.59
2022-10-22T10:41:30.747Z,100992.66
2022-10-22T10:44:20.828Z,100998.16
2022-10-22T10:46:54.482Z,101011.00
2022-10-22T10:49:26.783Z,100982.06
2022-10-22T10:52:02.645Z,100960.66
2022-10-22T10:54:45.820Z,101001.06
2022-10-22T10:57:25.901Z,101036.44
2022-10-22T11:00:06.187Z,101016.97
2022-10-22T11:03:02.785Z,100977.19
2022-10-22T11:05:38.306Z,100936.91
2022-10-22T11:08:14.000Z,100946.56
2022-10-22T11:10:45.912Z,100975.97
2022-10-22T11:13:23.085Z,100937.53
2022-10-22T11:15:56.639Z,100955.50
2022-10-22T11:18:29.893Z,100930.81
2022-10-22T11:21:08.458Z,100954.19
2022-10-22T11:23:43.761Z,100960.34
2022-10-22T11:26:19.098Z,100904.69
2022-10-22T11:28:51.994Z,100934.94
2022-10-22T11:31:20.296Z,100931.41
2022-10-22T11:34:04.985Z,100918.75
2022-10-22T11:36:44.298Z,100880.25
2022-10-22T11:39:39.788Z,100854.69
2022-10-22T11:42:10.855Z,100857.66
2022-10-22T11:44:49.931Z,100866.00
2022-10-22T11:47:21.759Z,100818.56
2022-10-22T11:49:58.487Z,100846.19
2022-10-22T11:52:38.265Z,100824.19
2022-10-22T11:55:34.353Z,100812.91
2022-10-22T11:58:22.830Z,100865.28
2022-10-22T12:00:50.921Z,100800.88
2022-10-22T12:03:24.863Z,100809.56
2022-10-22T12:06:08.384Z,100743.44
2022-10-22T12:08:44.250Z,100743.81
2022-10-22T12:11:22.807Z,100740.50
2022-10-22T12:14:13.870Z,100746.16
2022-10-22T12:16:55.830Z,100748.47
2022-10-22T12:19:31.133Z,100727.13
2022-10-22T12:22:03.032Z,100705.59
2022-10-22T12:24:35.587Z,100708.56
2022-10-22T12:27:09.240Z,100709.31
2022-10-22T12:29:37.456Z,100689.47
2022-10-22T12:32:05.807Z,100695.91
2022-10-22T12:34:33.339Z,100675.00
2022-10-22T12:37:05.766Z,100658.78
2022-10-22T12:39:35.351Z,100663.19
2022-10-22T12:42:06.330Z,100649.94
2022-10-22T12:44:34.991Z,100637.66
2022-10-22T12:47:03.135Z,100606.72
2022-10-22T12:49:40.963Z,100613.69
2022-10-22T12:52:14.361Z,100627.84
2022-10-22T12:54:42.433Z,100630.25
2022-10-22T12:57:15.933Z,100574.22
2022-10-22T12:59:49.570Z,100573.22
2022-10-22T13:02:22.612Z,100550.16
2022-10-22T13:05:17.660Z,100548.03
2022-10-22T13:07:49.071Z,100547.84
2022-10-22T13:10:21.570Z,100556.16
2022-10-22T13:12:57.285Z,100563.91
2022-10-22T13:15:38.358Z,100544.03
2022-10-22T13:18:16.046Z,100523.59
2022-10-22T13:20:55.312Z,100525.50
2022-10-22T13:23:25.758Z,100529.38
2022-10-22T13:26:03.153Z,100518.97
2022-10-22T13:28:33.684Z,100501.34
2022-10-22T13:31:03.903Z,100485.47
2022-10-22T13:33:35.579Z,100509.28
2022-10-22T13:36:04.175Z,100480.09
2022-10-22T13:38:32.114Z,100465.13
2022-10-22T13:41:00.277Z,100446.72
2022-10-22T13:43:30.278Z,100448.47
2022-10-22T13:46:01.506Z,100446.06
2022-10-22T13:48:31.260Z,100456.00
2022-10-22T13:50:59.258Z,100437.66
2022-10-22T13:53:31.239Z,100402.88
2022-10-22T13:55:59.353Z,100417.13
2022-10-22T13:58:26.937Z,100408.72
2022-10-22T14:00:56.995Z,100430.56
2022-10-22T14:03:31.478Z,100413.19
2022-10-22T14:05:59.507Z,100410.91
2022-10-22T14:08:28.460Z,100365.16
2022-10-22T14:10:56.484Z,100383.53
2022-10-22T14:13:24.267Z,100378.69
2022-10-22T14:15:53.253Z,100363.03
2022-10-22T14:18:26.454Z,100357.63
2022-10-22T14:20:57.953Z,100368.88
2022-10-22T14:23:27.815Z,100350.06
2022-10-22T14:25:56.042Z,100332.81
2022-10-22T14:28:23.720Z,100302.75
2022-10-22T14:30:52.440Z,100334.25
2022-10-22T14:33:25.696Z,100316.69
2022-10-22T14:35:56.459Z,100308.88
2022-10-22T14:38:26.073Z,100324.56
2022-10-22T14:40:53.528Z,100307.44
2022-10-22T14:43:23.262Z,100331.50
2022-10-22T14:45:52.656Z,100322.53
2022-10-22T14:48:23.573Z,100310.00
2022-10-22T14:50:51.549Z,100311.84
2022-10-22T14:53:26.686Z,100308.72
2022-10-22T14:55:57.875Z,100308.00
2022-10-22T14:58:29.082Z,100298.31
2022-10-22T15:00:59.300Z,100289.22
2022-10-22T15:03:31.575Z,100285.19
2022-10-22T15:06:03.516Z,100235.91
2022-10-22T15:08:33.566Z,100217.63
2022-10-22T15:11:04.041Z,100224.41
2022-10-22T15:13:33.198Z,100228.63
2022-10-22T15:16:01.501Z,100229.16
2022-10-22T15:18:30.192Z,100238.59
2022-10-22T15:20:59.839Z,100257.22
2022-10-22T15:23:28.219Z,100273.63
2022-10-22T15:25:57.727Z,100289.16
2022-10-22T15:28:26.144Z,100301.97
2022-10-22T15:30:55.342Z,100305.09
2022-10-22T15:33:29.057Z,100317.91
2022-10-22T15:35:58.658Z,100323.44
2022-10-22T15:41:05.646Z,100342.19
2022-10-22T15:43:34.267Z,100345.75
2022-10-22T15:46:22.727Z,100347.72
2022-10-22T15:48:57.920Z,100366.94
2022-10-22T15:51:45.689Z,100365.34
2022-10-22T15:54:23.981Z,100381.59
2022-10-22T15:57:04.562Z,100398.91
2022-10-22T16:02:31.303Z,100436.72
2022-10-22T16:04:59.570Z,100463.59
2022-10-22T16:07:28.191Z,100471.81
2022-10-22T16:10:00.483Z,100501.09
2022-10-22T16:12:29.832Z,100516.94
2022-10-22T16:15:03.829Z,100523.81
2022-10-22T16:17:32.377Z,100548.34
2022-10-22T16:20:01.272Z,100567.50
2022-10-22T16:22:29.361Z,100560.63
2022-10-22T16:24:59.599Z,100574.59
2022-10-22T16:27:29.004Z,100579.97
2022-10-22T16:29:56.679Z,100608.78
2022-10-22T16:32:24.472Z,100623.69
2022-10-22T16:34:52.236Z,100633.78
2022-10-22T16:37:19.869Z,100637.81
2022-10-22T16:39:47.650Z,100647.13
2022-10-22T16:42:16.017Z,100644.28
2022-10-22T16:44:45.664Z,100660.53
2022-10-22T16:47:13.506Z,100663.59
2022-10-22T16:49:41.460Z,100682.59
2022-10-22T16:52:12.456Z,100688.91
2022-10-22T16:54:46.636Z,100695.28
2022-10-22T16:57:24.661Z,100714.53
2022-10-22T17:00:14.943Z,100722.69
2022-10-22T17:02:45.105Z,100724.38
2022-10-22T17:05:17.765Z,100720.09
2022-10-22T17:07:45.685Z,100723.06
2022-10-22T17:10:14.238Z,100731.25
2022-10-22T17:12:43.751Z,100735.06
2022-10-22T17:15:14.052Z,100753.97
2022-10-22T17:17:42.318Z,100753.41
2022-10-22T17:20:22.215Z,100767.00
2022-10-22T17:22:53.180Z,100784.84
2022-10-22T17:25:24.788Z,100794.91
2022-10-22T17:27:55.398Z,100806.50
2022-10-22T17:30:28.327Z,100815.53
2022-10-22T17:32:56.204Z,100823.56
2022-10-22T17:35:24.874Z,100831.63
2022-10-22T17:37:53.073Z,100844.19
2022-10-22T17:40:21.708Z,100862.00
2022-10-22T17:42:49.790Z,100879.59
2022-10-22T17:45:17.681Z,100900.59
2022-10-22T17:47:47.148Z,100912.78
2022-10-22T17:50:15.081Z,100935.63
2022-10-22T17:52:43.168Z,100951.16
2022-10-22T17:55:11.536Z,100954.44
2022-10-22T17:57:39.384Z,100958.59
2022-10-22T18:00:08.497Z,100973.38
2022-10-22T18:02:36.378Z,100955.06
2022-10-22T18:05:06.255Z,100940.88
2022-10-22T18:07:34.366Z,100914.34
2022-10-22T18:10:02.075Z,100904.56
2022-10-22T18:12:29.777Z,100895.03
2022-10-22T18:14:58.074Z,100894.38
2022-10-22T18:17:27.504Z,100892.06
2022-10-22T18:19:55.217Z,100887.97
2022-10-22T18:22:24.865Z,100898.97
2022-10-22T18:24:53.217Z,100912.59
2022-10-22T18:27:20.959Z,100926.22
2022-10-22T18:29:50.574Z,100928.22
2022-10-22T18:32:18.495Z,100932.16
2022-10-22T18:34:46.282Z,100930.75
2022-10-22T18:37:13.998Z,100948.03
2022-10-22T18:39:45.120Z,100958.78
2022-10-22T18:44:48.169Z,100970.91
2022-10-22T18:47:16.063Z,100983.56
2022-10-22T18:49:43.693Z,100988.22
2022-10-22T18:52:11.612Z,100999.03
2022-10-22T18:54:47.651Z,100997.59
2022-10-22T18:57:18.142Z,100980.22
2022-10-22T18:59:46.156Z,100996.38
2022-10-22T19:02:17.467Z,100997.44
2022-10-22T19:04:48.604Z,101015.69
2022-10-22T19:07:16.757Z,101014.25
2022-10-22T19:09:44.731Z,101023.47
2022-10-22T19:12:15.191Z,101036.91
2022-10-22T19:14:44.583Z,101056.72
2022-10-22T19:17:13.328Z,101051.78
2022-10-22T19:19:41.044Z,101084.66
2022-10-22T19:22:08.935Z,101089.16
2022-10-22T19:24:37.273Z,101115.97
2022-10-22T19:27:11.972Z,101128.53
2022-10-22T19:29:44.625Z,101148.00
2022-10-22T19:32:12.407Z,101151.44
2022-10-22T19:34:43.073Z,101164.09
2022-10-22T19:37:10.721Z,101194.06
2022-10-22T19:39:38.693Z,101212.59
2022-10-22T19:42:06.692Z,101226.63
2022-10-22T19:44:34.790Z,101251.94
2022-10-22T19:47:17.285Z,101272.06
2022-10-22T19:49:44.927Z,101287.56
2022-10-22T19:52:12.766Z,101279.19
2022-10-22T19:54:42.426Z,101286.66
2022-10-22T19:57:10.242Z,101254.19
2022-10-22T19:59:43.132Z,101222.81
2022-10-22T20:02:23.410Z,101204.88
2022-10-22T20:04:51.074Z,101174.59
2022-10-22T20:07:18.951Z,101148.09
2022-10-22T20:09:47.007Z,101149.00
2022-10-22T20:12:14.907Z,101141.16
2022-10-22T20:14:42.820Z,101131.53
2022-10-22T20:17:14.637Z,101131.72
2022-10-22T20:19:43.799Z,101132.66
2022-10-22T20:22:14.984Z,101133.78
2022-10-22T20:24:46.653Z,101149.13
2022-10-22T20:27:14.853Z,101161.56
2022-10-22T20:29:42.624Z,101155.50
2022-10-22T20:32:14.658Z,101160.88
2022-10-22T20:34:44.582Z,101161.91
2022-10-22T20:37:12.707Z,101147.97
2022-10-22T20:39:40.619Z,101146.50
2022-10-22T20:42:10.698Z,101179.50
2022-10-22T20:44:38.632Z,101212.31
2022-10-22T20:47:13.618Z,101236.91
2022-10-22T20:49:57.544Z,101261.69
2022-10-22T20:52:27.298Z,101265.16
2022-10-22T20:54:54.938Z,101267.59
2022-10-22T20:57:23.178Z,101258.56
2022-10-22T20:59:51.520Z,101242.56
2022-10-22T21:02:19.415Z,101233.72
2022-10-22T21:04:53.278Z,101224.28
2022-10-22T21:07:27.536Z,101220.03
2022-10-22T21:09:57.569Z,101229.13
2022-10-22T21:12:36.773Z,101228.59
2022-10-22T21:15:07.775Z,101224.41
2022-10-22T21:17:42.121Z,101225.59
2022-10-22T21:20:12.739Z,101232.22
2022-10-22T21:22:44.732Z,101233.50
2022-10-22T21:25:23.453Z,101243.69
2022-10-22T21:28:02.309Z,101299.00
2022-10-22T21:30:30.554Z,101280.00
2022-10-22T21:32:58.295Z,101317.56
2022-10-22T21:35:27.148Z,101323.25
2022-10-22T21:37:54.959Z,101340.38
2022-10-22T21:40:34.627Z,101361.88
2022-10-22T21:43:02.444Z,101385.22
2022-10-22T21:45:31.381Z,101418.44
2022-10-22T21:48:02.576Z,101424.97
2022-10-22T21:50:31.177Z,101439.47
2022-10-22T21:52:58.887Z,101461.88
2022-10-22T21:58:25.109Z,101508.41
2022-10-22T22:00:58.862Z,101512.91
2022-10-22T22:03:30.590Z,101533.50
2022-10-22T22:06:00.304Z,101541.59
2022-10-22T22:08:31.341Z,101549.75
2022-10-22T22:11:04.872Z,101573.72
2022-10-22T22:13:38.161Z,101569.38
2022-10-22T22:16:08.577Z,101580.00
2022-10-22T22:18:40.089Z,101574.84
2022-10-22T22:21:10.867Z,101583.03
2022-10-22T22:23:39.523Z,101591.09
2022-10-22T22:26:09.831Z,101595.63
2022-10-22T22:28:38.487Z,101601.88
2022-10-22T22:31:15.774Z,101604.75
2022-10-22T22:33:43.828Z,101603.94
2022-10-22T22:36:12.006Z,101604.94
2022-10-22T22:38:40.576Z,101603.44
2022-10-22T22:41:10.531Z,101596.50
2022-10-22T22:43:38.970Z,101614.41
2022-10-22T22:46:08.658Z,101610.91
2022-10-22T22:51:32.830Z,101610.47
2022-10-22T22:54:01.491Z,101622.19
2022-10-22T22:56:32.551Z,101636.50
2022-10-22T22:59:00.517Z,101638.50
2022-10-22T23:01:33.314Z,101632.53
2022-10-22T23:04:02.765Z,101645.97
2022-10-22T23:06:33.443Z,101652.34
2022-10-22T23:09:01.619Z,101664.97
2022-10-22T23:11:31.778Z,101665.16
2022-10-22T23:14:02.273Z,101668.78
2022-10-22T23:16:32.253Z,101677.94
2022-10-22T23:19:04.820Z,101699.25
2022-10-22T23:21:35.059Z,101732.13
2022-10-22T23:24:05.477Z,101735.75
2022-10-22T23:26:36.582Z,101748.38
2022-10-22T23:29:06.538Z,101743.13
2022-10-22T23:31:34.937Z,101740.59
2022-10-22T23:34:03.014Z,101746.91
2022-10-22T23:39:24.858Z,101773.81
2022-10-22T23:41:57.171Z,101810.25
2022-10-22T23:44:25.373Z,101828.00
2022-10-22T23:46:55.370Z,101841.44
2022-10-22T23:49:23.593Z,101862.69
2022-10-22T23:51:51.343Z,101869.94
2022-10-22T23:54:19.253Z,101896.47
2022-10-22T23:56:47.189Z,101895.56
2022-10-22T23:59:16.612Z,101913.25
